createdAt,value
2023-06-30T00:00:29.768Z,7.53
2023-06-30T00:03:32.819Z,8.15
2023-06-30T00:06:35.887Z,7.50
2023-06-30T00:09:40.083Z,7.25
2023-06-30T00:12:42.968Z,6.93
2023-06-30T00:15:45.987Z,7.60
2023-06-30T00:18:49.352Z,7.15
2023-06-30T00:21:53.594Z,7.93
2023-06-30T00:24:59.661Z,7.88
2023-06-30T00:28:02.531Z,7.60
2023-06-30T00:31:05.423Z,8.70
2023-06-30T00:34:08.279Z,7.80
2023-06-30T00:37:11.040Z,8.02
2023-06-30T00:40:16.367Z,8.73
2023-06-30T00:43:19.260Z,8.23
2023-06-30T00:46:22.126Z,8.40
2023-06-30T00:49:25.267Z,8.48
2023-06-30T00:52:28.184Z,8.38
2023-06-30T00:55:33.180Z,8.57
2023-06-30T00:58:36.044Z,8.77
2023-06-30T01:01:45.128Z,9.18
2023-06-30T01:04:55.064Z,10.00
2023-06-30T01:08:04.011Z,9.48
2023-06-30T01:11:10.003Z,9.43
2023-06-30T01:14:13.546Z,9.07
2023-06-30T01:17:19.577Z,9.13
2023-06-30T01:20:23.574Z,9.48
2023-06-30T01:23:35.646Z,9.45
2023-06-30T01:26:42.180Z,9.88
2023-06-30T01:29:45.320Z,10.10
2023-06-30T01:32:48.977Z,9.50
2023-06-30T01:35:51.944Z,9.43
2023-06-30T01:38:54.697Z,8.98
2023-06-30T01:41:59.003Z,10.02
2023-06-30T01:45:03.256Z,9.93
2023-06-30T01:48:06.941Z,10.23
2023-06-30T01:51:11.360Z,9.65
2023-06-30T01:54:14.233Z,10.60
2023-06-30T01:57:18.449Z,10.27
2023-06-30T02:00:21.325Z,10.10
2023-06-30T02:03:24.306Z,9.82
2023-06-30T02:06:27.263Z,10.27
2023-06-30T02:09:42.669Z,9.93
2023-06-30T02:12:51.275Z,10.23
2023-06-30T02:15:54.192Z,10.60
2023-06-30T02:18:56.962Z,10.13
2023-06-30T02:21:59.843Z,10.43
2023-06-30T02:25:02.583Z,10.52
2023-06-30T02:28:07.182Z,10.48
2023-06-30T02:31:10.071Z,10.57
2023-06-30T02:34:13.024Z,10.57
2023-06-30T02:37:16.094Z,11.15
2023-06-30T02:40:19.002Z,10.15
2023-06-30T02:43:23.353Z,10.32
2023-06-30T02:46:26.156Z,10.60
2023-06-30T02:49:29.512Z,10.27
2023-06-30T02:52:34.422Z,10.30
2023-06-30T02:55:39.338Z,11.13
2023-06-30T02:58:43.743Z,10.00
2023-06-30T03:01:46.577Z,9.70
2023-06-30T03:04:49.330Z,10.50
2023-06-30T03:07:52.052Z,9.93
2023-06-30T03:10:54.949Z,10.13
2023-06-30T03:13:59.087Z,10.18
2023-06-30T03:17:02.865Z,9.83
2023-06-30T03:20:13.366Z,9.70
2023-06-30T03:23:16.142Z,9.18
2023-06-30T03:26:18.859Z,10.02
2023-06-30T03:29:24.510Z,9.88
2023-06-30T03:32:27.410Z,9.70
2023-06-30T03:35:30.359Z,9.50
2023-06-30T03:38:33.107Z,9.55
2023-06-30T03:41:36.043Z,9.70
2023-06-30T03:44:40.287Z,10.13
2023-06-30T03:47:43.070Z,9.63
2023-06-30T03:50:45.988Z,9.93
2023-06-30T03:53:48.662Z,10.43
2023-06-30T03:56:51.421Z,10.18
2023-06-30T03:59:55.554Z,10.50
2023-06-30T04:02:58.336Z,10.47
2023-06-30T04:06:01.332Z,10.17
2023-06-30T04:09:17.683Z,10.10
2023-06-30T04:12:35.583Z,9.98
2023-06-30T04:15:39.921Z,10.38
2023-06-30T04:18:42.672Z,10.15
2023-06-30T04:21:45.585Z,10.52
2023-06-30T04:24:48.351Z,10.57
2023-06-30T04:27:51.173Z,10.80
2023-06-30T04:30:55.469Z,10.35
2023-06-30T04:33:58.367Z,9.85
2023-06-30T04:37:01.210Z,9.20
2023-06-30T04:40:05.862Z,9.63
2023-06-30T04:43:13.790Z,9.03
2023-06-30T04:46:18.197Z,9.57
2023-06-30T04:49:21.101Z,9.30
2023-06-30T04:52:23.850Z,9.63
2023-06-30T04:55:26.574Z,9.67
2023-06-30T04:58:29.454Z,9.97
2023-06-30T05:01:34.167Z,9.40
2023-06-30T05:04:37.023Z,10.10
2023-06-30T05:07:39.966Z,9.13
2023-06-30T05:10:42.754Z,10.00
2023-06-30T05:13:45.609Z,10.20
2023-06-30T05:16:50.248Z,9.73
2023-06-30T05:19:53.032Z,9.63
2023-06-30T05:22:55.899Z,9.13
2023-06-30T05:25:59.814Z,9.63
2023-06-30T05:29:05.257Z,9.50
2023-06-30T05:32:10.469Z,9.35
2023-06-30T05:35:13.202Z,9.10
2023-06-30T05:38:15.983Z,9.45
2023-06-30T05:41:18.768Z,9.47
2023-06-30T05:44:21.567Z,8.83
2023-06-30T05:47:25.770Z,9.10
2023-06-30T05:50:30.046Z,8.93
2023-06-30T05:53:32.971Z,9.55
2023-06-30T05:56:35.890Z,9.33
2023-06-30T05:59:38.654Z,9.20
2023-06-30T06:02:42.809Z,9.00
2023-06-30T06:05:46.010Z,9.60
2023-06-30T06:08:49.430Z,9.40
2023-06-30T06:11:52.492Z,9.83
2023-06-30T06:14:55.244Z,9.43
2023-06-30T06:17:59.385Z,10.00
2023-06-30T06:21:04.381Z,9.57
2023-06-30T06:24:08.423Z,9.23
2023-06-30T06:27:11.419Z,8.73
2023-06-30T06:30:15.006Z,9.97
2023-06-30T06:33:19.191Z,9.05
2023-06-30T06:36:22.478Z,9.15
2023-06-30T06:39:25.452Z,9.13
2023-06-30T06:42:28.346Z,8.97
2023-06-30T06:45:31.046Z,10.53
2023-06-30T06:48:35.388Z,8.85
2023-06-30T06:51:38.186Z,9.65
2023-06-30T06:54:41.071Z,9.27
2023-06-30T06:57:43.876Z,8.97
2023-06-30T07:00:48.202Z,8.77
2023-06-30T07:03:52.432Z,9.30
2023-06-30T07:06:55.672Z,8.95
2023-06-30T07:09:58.443Z,8.95
2023-06-30T07:13:01.214Z,8.40
2023-06-30T07:16:04.127Z,8.40
2023-06-30T07:19:08.310Z,8.30
2023-06-30T07:22:11.083Z,8.27
2023-06-30T07:25:14.092Z,8.35
2023-06-30T07:28:17.036Z,8.20
2023-06-30T07:31:19.857Z,8.40
2023-06-30T07:34:24.879Z,9.30
2023-06-30T07:37:27.601Z,9.25
2023-06-30T07:40:41.635Z,9.13
2023-06-30T07:43:49.176Z,9.30
2023-06-30T07:46:51.982Z,9.50
2023-06-30T07:49:56.139Z,9.27
2023-06-30T07:52:58.900Z,9.02
2023-06-30T07:56:01.761Z,9.05
2023-06-30T07:59:04.567Z,9.03
2023-06-30T08:02:07.900Z,9.23
2023-06-30T08:05:12.787Z,9.25
2023-06-30T08:08:15.731Z,10.10
2023-06-30T08:11:18.651Z,10.98
2023-06-30T08:14:21.401Z,10.70
2023-06-30T08:17:30.888Z,9.77
2023-06-30T08:20:43.804Z,10.57
2023-06-30T08:23:46.537Z,10.30
2023-06-30T08:26:49.442Z,10.25
2023-06-30T08:29:52.181Z,10.10
2023-06-30T08:32:57.663Z,10.33
2023-06-30T08:36:02.188Z,11.00
2023-06-30T08:39:05.164Z,11.02
2023-06-30T08:42:10.234Z,11.45
2023-06-30T08:45:15.095Z,11.23
2023-06-30T08:48:21.083Z,11.50
2023-06-30T08:51:25.999Z,10.27
2023-06-30T08:54:29.885Z,11.23
2023-06-30T08:57:33.808Z,11.50
2023-06-30T09:00:36.627Z,11.53
2023-06-30T09:03:40.519Z,10.70
2023-06-30T09:06:49.312Z,12.30
2023-06-30T09:09:55.957Z,12.43
2023-06-30T09:12:59.624Z,11.50
2023-06-30T09:16:07.739Z,11.70
2023-06-30T09:19:11.501Z,10.83
2023-06-30T09:22:53.832Z,11.55
2023-06-30T09:25:41.875Z,12.23
2023-06-30T09:28:45.212Z,11.48
2023-06-30T09:31:51.997Z,11.90
2023-06-30T09:34:55.464Z,12.70
2023-06-30T09:37:59.770Z,47.50
2023-06-30T09:41:06.462Z,64.65
2023-06-30T09:44:11.792Z,27.73
2023-06-30T09:47:19.396Z,14.10
2023-06-30T09:50:26.080Z,13.03
2023-06-30T09:53:37.928Z,11.05
2023-06-30T09:56:42.596Z,13.00
2023-06-30T09:59:47.547Z,10.55
2023-06-30T10:03:03.845Z,12.40
2023-06-30T10:06:06.868Z,11.30
2023-06-30T10:09:11.286Z,10.25
2023-06-30T10:12:16.768Z,11.02
2023-06-30T10:15:19.946Z,10.82
2023-06-30T10:18:22.859Z,11.70
2023-06-30T10:21:25.618Z,13.07
2023-06-30T10:24:31.611Z,10.27
2023-06-30T10:27:35.997Z,9.07
2023-06-30T10:30:39.548Z,8.98
2023-06-30T10:33:42.971Z,8.87
2023-06-30T10:36:46.528Z,9.10
2023-06-30T10:39:50.706Z,9.07
2023-06-30T10:42:55.593Z,9.38
2023-06-30T10:46:11.346Z,11.05
2023-06-30T10:49:20.015Z,9.97
2023-06-30T10:52:30.285Z,9.67
2023-06-30T10:55:34.709Z,9.85
2023-06-30T10:58:43.219Z,9.07
2023-06-30T11:02:13.789Z,10.03
2023-06-30T11:05:24.594Z,10.53
2023-06-30T11:08:27.732Z,10.63
2023-06-30T11:11:32.045Z,9.38
2023-06-30T11:14:34.818Z,10.52
2023-06-30T11:18:04.753Z,9.70
2023-06-30T11:21:09.186Z,9.93
2023-06-30T11:24:16.524Z,10.25
2023-06-30T11:27:20.868Z,10.10
2023-06-30T11:30:24.393Z,11.55
2023-06-30T11:33:27.144Z,5.93
2023-06-30T11:36:32.424Z,3.87
2023-06-30T11:39:36.756Z,3.40
2023-06-30T11:42:44.174Z,3.72
2023-06-30T11:45:57.216Z,3.50
2023-06-30T11:49:00.298Z,3.27
2023-06-30T11:52:03.330Z,2.60
2023-06-30T11:55:10.019Z,2.70
2023-06-30T11:58:19.973Z,2.30
2023-06-30T12:01:22.886Z,2.50
2023-06-30T12:04:36.918Z,2.50
2023-06-30T12:07:40.533Z,2.10
2023-06-30T12:10:44.246Z,21.73
2023-06-30T12:13:48.829Z,7.78
2023-06-30T12:16:52.728Z,3.08
2023-06-30T12:19:55.517Z,2.60
2023-06-30T12:22:58.583Z,2.83
2023-06-30T12:26:01.400Z,6.47
2023-06-30T12:29:06.083Z,5.97
2023-06-30T12:32:14.943Z,4.38
2023-06-30T12:35:17.879Z,3.60
2023-06-30T12:38:20.714Z,4.07
2023-06-30T12:41:24.176Z,3.85
2023-06-30T12:44:28.319Z,4.35
2023-06-30T12:47:31.288Z,5.35
2023-06-30T12:50:34.453Z,4.77
2023-06-30T12:53:37.784Z,5.37
2023-06-30T12:56:40.535Z,5.30
2023-06-30T12:59:44.949Z,5.05
2023-06-30T13:02:47.812Z,4.70
2023-06-30T13:05:52.249Z,5.00
2023-06-30T13:08:55.002Z,4.77
2023-06-30T13:11:58.461Z,5.00
2023-06-30T13:15:02.867Z,5.10
2023-06-30T13:18:05.615Z,4.88
2023-06-30T13:21:08.878Z,5.33
2023-06-30T13:24:12.696Z,5.20
2023-06-30T13:27:15.645Z,5.35
2023-06-30T13:30:19.907Z,4.25
2023-06-30T13:33:23.070Z,4.68
2023-06-30T13:36:27.452Z,4.23
2023-06-30T13:39:31.848Z,4.23
2023-06-30T13:42:36.026Z,3.97
2023-06-30T13:45:40.303Z,3.83
2023-06-30T13:48:43.322Z,5.10
2023-06-30T13:51:46.180Z,4.37
2023-06-30T13:54:48.925Z,3.50
2023-06-30T13:57:51.703Z,3.42
2023-06-30T14:00:56.013Z,3.25
2023-06-30T14:03:58.804Z,3.20
2023-06-30T14:07:03.652Z,3.13
2023-06-30T14:10:07.221Z,3.30
2023-06-30T14:13:10.021Z,3.30
2023-06-30T14:16:14.417Z,3.03
2023-06-30T14:19:17.309Z,2.60
2023-06-30T14:22:20.179Z,3.40
2023-06-30T14:25:25.412Z,2.90
2023-06-30T14:28:28.213Z,2.83
2023-06-30T14:31:35.667Z,2.60
2023-06-30T14:34:38.774Z,2.72
2023-06-30T14:37:41.650Z,2.30
2023-06-30T14:44:05.669Z,2.38
2023-06-30T14:47:10.104Z,2.08
2023-06-30T14:50:12.889Z,2.33
2023-06-30T14:53:16.508Z,2.70
2023-06-30T14:56:19.397Z,2.80
2023-06-30T14:59:22.171Z,2.80
2023-06-30T15:02:26.680Z,2.42
2023-06-30T15:05:30.601Z,2.72
2023-06-30T15:08:33.505Z,2.60
2023-06-30T15:11:36.357Z,3.27
2023-06-30T15:14:39.138Z,2.40
2023-06-30T15:17:43.527Z,2.65
2023-06-30T15:20:46.424Z,2.72
2023-06-30T15:23:49.182Z,2.33
2023-06-30T15:26:52.004Z,2.57
2023-06-30T15:29:55.059Z,2.10
2023-06-30T15:32:59.421Z,2.28
2023-06-30T15:36:02.286Z,1.90
2023-06-30T15:39:05.485Z,2.50
2023-06-30T15:42:08.649Z,2.00
2023-06-30T15:45:11.986Z,2.10
2023-06-30T15:48:16.211Z,2.20
2023-06-30T15:51:21.114Z,2.00
2023-06-30T15:54:24.061Z,2.03
2023-06-30T15:57:26.880Z,2.43
2023-06-30T16:00:29.629Z,2.35
2023-06-30T16:03:34.050Z,2.25
2023-06-30T16:06:36.801Z,2.10
2023-06-30T16:09:39.681Z,2.00
2023-06-30T16:12:42.484Z,1.90
2023-06-30T16:15:45.716Z,1.90
2023-06-30T16:18:50.411Z,1.80
2023-06-30T16:21:54.521Z,5.43
2023-06-30T16:25:00.482Z,4.55
2023-06-30T16:28:03.425Z,3.80
2023-06-30T16:31:06.180Z,2.75
2023-06-30T16:34:10.468Z,1.95
2023-06-30T16:37:13.261Z,1.85
2023-06-30T16:40:16.112Z,2.35
2023-06-30T16:43:19.026Z,2.00
2023-06-30T16:46:21.780Z,1.90
2023-06-30T16:49:26.970Z,2.00
2023-06-30T16:52:29.744Z,1.63
2023-06-30T16:55:32.637Z,1.80
2023-06-30T16:58:35.548Z,1.80
2023-06-30T17:01:38.292Z,1.80
2023-06-30T17:04:42.767Z,1.83
2023-06-30T17:07:45.707Z,1.70
2023-06-30T17:10:48.636Z,1.80
2023-06-30T17:13:51.602Z,1.90
2023-06-30T17:16:54.393Z,1.50
2023-06-30T17:19:58.647Z,2.28
2023-06-30T17:23:01.496Z,2.90
2023-06-30T17:26:04.384Z,1.98
2023-06-30T17:29:07.170Z,1.88
2023-06-30T17:32:10.220Z,1.60
2023-06-30T17:35:14.496Z,1.75
2023-06-30T17:38:17.243Z,1.80
2023-06-30T17:41:20.373Z,2.10
2023-06-30T17:44:24.294Z,2.13
2023-06-30T17:47:27.055Z,2.00
2023-06-30T17:50:31.254Z,2.20
2023-06-30T17:53:34.207Z,1.80
2023-06-30T17:56:37.038Z,1.92
2023-06-30T17:59:39.901Z,1.90
2023-06-30T18:02:42.709Z,1.58
2023-06-30T18:05:47.150Z,1.80
2023-06-30T18:08:50.127Z,1.60
2023-06-30T18:11:53.061Z,1.70
2023-06-30T18:14:55.847Z,1.67
2023-06-30T18:17:59.150Z,1.70
2023-06-30T18:21:03.306Z,1.50
2023-06-30T18:24:07.837Z,1.70
2023-06-30T18:27:10.565Z,1.60
2023-06-30T18:30:13.730Z,1.60
2023-06-30T18:33:16.679Z,1.63
2023-06-30T18:36:20.925Z,1.43
2023-06-30T18:39:23.669Z,1.80
2023-06-30T18:42:26.402Z,1.98
2023-06-30T18:45:29.268Z,1.90
2023-06-30T18:48:32.301Z,1.85
2023-06-30T18:51:36.470Z,2.00
2023-06-30T18:54:39.286Z,1.70
2023-06-30T18:57:42.241Z,2.10
2023-06-30T19:00:45.244Z,1.92
2023-06-30T19:03:49.364Z,2.00
2023-06-30T19:06:53.934Z,1.90
2023-06-30T19:09:56.628Z,1.80
2023-06-30T19:12:59.705Z,1.77
2023-06-30T19:16:02.662Z,1.63
2023-06-30T19:19:05.431Z,2.10
2023-06-30T19:22:09.714Z,1.77
2023-06-30T19:25:12.465Z,1.80
2023-06-30T19:28:15.414Z,2.00
2023-06-30T19:31:18.413Z,1.65
2023-06-30T19:34:21.254Z,1.83
2023-06-30T19:37:25.491Z,1.60
2023-06-30T19:40:28.314Z,1.90
2023-06-30T19:43:31.213Z,1.83
2023-06-30T19:46:35.425Z,1.67
2023-06-30T19:49:38.725Z,2.00
2023-06-30T19:52:42.927Z,2.00
2023-06-30T19:55:46.038Z,1.85
2023-06-30T19:58:49.516Z,2.10
2023-06-30T20:01:55.832Z,1.80
2023-06-30T20:04:58.629Z,2.05
2023-06-30T20:08:03.086Z,1.63
2023-06-30T20:11:05.844Z,1.80
2023-06-30T20:14:08.857Z,2.05
2023-06-30T20:17:11.767Z,1.70
2023-06-30T20:20:15.097Z,1.90
2023-06-30T20:23:19.632Z,2.00
2023-06-30T20:26:22.407Z,2.10
2023-06-30T20:29:25.323Z,2.10
2023-06-30T20:32:28.258Z,2.08
2023-06-30T20:35:31.043Z,1.98
2023-06-30T20:38:35.145Z,2.10
2023-06-30T20:41:37.888Z,1.85
2023-06-30T20:44:40.796Z,2.08
2023-06-30T20:47:43.672Z,2.20
2023-06-30T20:50:46.755Z,2.33
2023-06-30T20:53:51.169Z,2.00
2023-06-30T20:56:55.476Z,2.10
2023-06-30T20:59:58.325Z,2.38
2023-06-30T21:03:01.306Z,2.00
2023-06-30T21:06:04.084Z,2.30
2023-06-30T21:09:08.320Z,2.50
2023-06-30T21:12:11.234Z,2.58
2023-06-30T21:15:14.118Z,2.90
2023-06-30T21:18:17.194Z,2.70
2023-06-30T21:21:20.131Z,2.50
2023-06-30T21:24:24.417Z,2.63
2023-06-30T21:27:27.917Z,2.47
2023-06-30T21:30:30.905Z,2.70
2023-06-30T21:33:33.718Z,2.70
2023-06-30T21:36:39.547Z,2.70
2023-06-30T21:39:44.298Z,2.70
2023-06-30T21:42:47.026Z,2.58
2023-06-30T21:45:49.891Z,2.67
2023-06-30T21:48:53.986Z,2.40
2023-06-30T21:52:16.115Z,2.91
2023-06-30T21:55:20.628Z,2.67
2023-06-30T21:58:27.707Z,2.50
2023-06-30T22:01:39.929Z,2.70
2023-06-30T22:04:43.805Z,2.67
2023-06-30T22:07:46.759Z,2.60
2023-06-30T22:10:51.194Z,2.97
2023-06-30T22:13:54.118Z,2.40
2023-06-30T22:16:57.904Z,2.78
2023-06-30T22:20:00.633Z,2.88
2023-06-30T22:23:03.531Z,2.50
2023-06-30T22:26:07.896Z,2.67
2023-06-30T22:29:10.659Z,2.53
2023-06-30T22:32:14.704Z,2.58
2023-06-30T22:35:17.556Z,2.90
2023-06-30T22:38:20.477Z,2.90
2023-06-30T22:41:24.744Z,2.88
2023-06-30T22:44:27.493Z,2.60
2023-06-30T22:47:30.372Z,2.90
2023-06-30T22:50:33.205Z,2.90
2023-06-30T22:53:36.074Z,2.83
2023-06-30T22:56:40.455Z,3.00
2023-06-30T22:59:43.165Z,2.87
2023-06-30T23:02:46.114Z,3.10
2023-06-30T23:05:48.919Z,3.30
2023-06-30T23:08:51.794Z,3.03
2023-06-30T23:11:56.014Z,3.05
2023-06-30T23:14:58.756Z,2.73
2023-06-30T23:18:01.669Z,3.00
2023-06-30T23:21:10.305Z,2.72
2023-06-30T23:24:13.268Z,3.05
2023-06-30T23:27:18.105Z,2.92
2023-06-30T23:30:26.397Z,2.90
2023-06-30T23:33:29.300Z,2.90
2023-06-30T23:36:32.349Z,2.95
2023-06-30T23:39:36.962Z,2.58
2023-06-30T23:42:41.250Z,2.90
2023-06-30T23:45:43.948Z,2.90
2023-06-30T23:48:47.229Z,2.90
2023-06-30T23:51:51.193Z,3.25
2023-06-30T23:54:54.139Z,2.83
2023-06-30T23:57:58.225Z,3.20
